Time;durP1;ratioP1;P1;durP2;ratioP2;P2;SDS_P1;SDS_P2;PMS_P1;PMS_P2;Temp;Humidity;BMP_temperature;BMP_pressure;BME280_temperature;BME280_humidity;BME280_pressure;Samples;Min_cycle;Max_cycle;Signal;HPM_P1;HPM_P2
2022/02/10 04:55:00;;;;;;;20.45;10.48;;;1.90;97.10;;;;;;4633767;30;20086;-83
2022/02/10 05:00:24;;;;;;;21.40;10.05;;;1.90;97.30;;;;;;4658630;30;20053;-83
2022/02/10 05:19:04;;;;;;;16.77;9.65;;;1.70;97.30;;;;;;4659330;30;20045;-83
2022/02/10 05:21:45;;;;;;;20.02;9.77;;;1.70;97.30;;;;;;4677281;30;20042;-83
2022/02/10 05:35:03;;;;;;;21.70;10.40;;;1.70;97.40;;;;;;4692728;30;20132;-83
2022/02/10 05:37:32;;;;;;;20.05;9.85;;;1.60;97.60;;;;;;4679483;30;20041;-83
2022/02/10 05:40:03;;;;;;;20.95;9.70;;;1.60;97.60;;;;;;4692532;30;20029;-83
2022/02/10 05:43:25;;;;;;;22.25;10.70;;;1.60;97.40;;;;;;4664794;30;20329;-83
2022/02/10 05:45:38;;;;;;;22.70;10.43;;;1.60;97.50;;;;;;4670096;30;1125743;-82
2022/02/10 05:53:55;;;;;;;17.05;9.88;;;1.60;97.70;;;;;;4698315;30;20038;-83
2022/02/10 05:56:18;;;;;;;17.67;9.35;;;1.50;97.50;;;;;;4698320;30;20133;-83
2022/02/10 06:48:37;;;;;;;24.70;10.48;;;1.70;98.00;;;;;;4701262;30;20049;-83
2022/02/10 06:51:05;;;;;;;31.60;10.73;;;1.70;98.00;;;;;;4705672;30;20034;-83
2022/02/10 07:58:09;;;;;;;39.38;14.80;;;4.40;98.20;;;;;;4693497;30;20048;-83
2022/02/10 08:55:26;;;;;;;18.90;9.02;;;7.60;95.20;;;;;;4708267;30;20112;-83
2022/02/10 08:58:22;;;;;;;25.98;9.82;;;7.70;94.90;;;;;;4695795;30;20041;-82
2022/02/10 09:04:09;;;;;;;23.05;9.13;;;8.10;94.70;;;;;;4697660;30;20046;-82
2022/02/10 10:02:39;;;;;;;6.43;3.28;;;11.90;80.60;;;;;;4677295;30;20371;-83
2022/02/10 10:18:50;;;;;;;10.05;4.38;;;12.20;80.30;;;;;;4659625;30;20050;-82
2022/02/10 10:51:39;;;;;;;6.20;3.08;;;13.30;73.50;;;;;;4674045;30;20050;-82
2022/02/10 10:56:47;;;;;;;5.40;3.13;;;13.30;73.50;;;;;;4647359;30;20054;-82
2022/02/10 10:59:35;;;;;;;4.93;3.17;;;13.30;72.50;;;;;;4643000;30;20346;-83
2022/02/10 11:06:34;;;;;;;7.05;3.20;;;13.40;71.40;;;;;;4709001;30;20692;-82
2022/02/10 11:39:14;;;;;;;6.88;4.53;;;13.80;70.10;;;;;;4727689;30;20060;-82
2022/02/10 11:42:07;;;;;;;10.18;3.95;;;14.00;69.30;;;;;;4713139;30;20111;-82
2022/02/10 14:15:31;;;;;;;5.28;2.00;;;15.30;43.20;;;;;;4678975;30;20054;-82
2022/02/10 14:28:25;;;;;;;5.15;2.13;;;15.30;42.80;;;;;;4698927;30;20069;-82
2022/02/10 14:30:52;;;;;;;6.07;2.40;;;15.30;43.30;;;;;;4691447;30;20033;-82
2022/02/10 14:33:24;;;;;;;2.78;1.92;;;15.30;43.30;;;;;;4702395;30;20062;-82
2022/02/10 14:35:59;;;;;;;3.60;2.00;;;15.30;43.60;;;;;;4690031;30;20046;-82
2022/02/10 14:38:43;;;;;;;3.80;2.03;;;15.30;43.40;;;;;;4680188;30;20226;-82
2022/02/10 15:57:01;;;;;;;8.18;3.17;;;14.00;48.50;;;;;;4596936;31;20092;-82
2022/02/10 16:17:56;;;;;;;7.88;3.58;;;14.00;49.30;;;;;;4620018;31;20058;-82
2022/02/10 16:20:28;;;;;;;12.98;3.90;;;14.00;49.40;;;;;;4637583;30;20076;-83
2022/02/10 16:23:05;;;;;;;12.95;3.20;;;14.00;49.40;;;;;;4693700;30;20050;-82
2022/02/10 16:25:35;;;;;;;9.75;3.42;;;14.00;50.10;;;;;;4677480;30;20044;-83
2022/02/10 16:28:10;;;;;;;11.82;3.63;;;13.90;50.00;;;;;;4702554;30;20376;-82
2022/02/10 16:30:39;;;;;;;10.85;3.95;;;13.80;49.90;;;;;;4676473;30;20099;-82
2022/02/10 16:33:06;;;;;;;10.50;3.90;;;13.80;50.30;;;;;;4685495;30;20352;-81
2022/02/10 16:35:32;;;;;;;9.77;3.72;;;13.80;50.50;;;;;;4690421;30;20052;-82
2022/02/10 16:37:58;;;;;;;11.40;5.30;;;13.70;50.60;;;;;;4688383;30;20107;-82
2022/02/10 16:40:24;;;;;;;10.60;4.70;;;13.70;50.90;;;;;;4690033;30;20037;-82
2022/02/10 16:42:51;;;;;;;10.40;4.22;;;13.60;51.20;;;;;;4689821;30;20036;-83
2022/02/10 16:45:17;;;;;;;8.32;3.55;;;13.60;51.20;;;;;;4690226;30;20041;-83
2022/02/10 16:47:43;;;;;;;8.75;3.72;;;13.60;51.50;;;;;;4689814;30;20057;-83
2022/02/10 16:50:10;;;;;;;7.47;3.50;;;13.60;51.70;;;;;;4692631;30;20056;-83
2022/02/10 16:52:44;;;;;;;11.65;3.97;;;13.60;51.50;;;;;;4706927;30;20045;-83
2022/02/10 16:58:18;;;;;;;8.95;3.92;;;13.60;51.80;;;;;;4684074;30;20056;-83
2022/02/10 17:03:42;;;;;;;10.85;4.45;;;13.60;52.10;;;;;;4706381;30;20280;-82
2022/02/10 17:35:18;;;;;;;8.98;4.85;;;13.60;52.50;;;;;;4712268;30;20046;-83
2022/02/10 17:46:13;;;;;;;8.88;3.58;;;13.50;52.70;;;;;;4691772;30;20341;-82
2022/02/10 17:54:11;;;;;;;12.23;4.45;;;13.50;52.90;;;;;;4706616;30;20098;-84
2022/02/10 17:56:38;;;;;;;13.85;5.00;;;13.40;53.10;;;;;;4706595;30;20041;-83
2022/02/10 17:59:04;;;;;;;;;;;13.40;53.20;;;;;;4691263;30;20053;-82
2022/02/10 18:01:30;;;;;;;9.75;5.38;;;13.40;53.30;;;;;;4689660;30;20120;-83
2022/02/10 18:03:56;;;;;;;10.82;5.32;;;13.30;53.60;;;;;;4719957;30;20041;-83
2022/02/10 18:06:28;;;;;;;11.93;5.35;;;13.20;53.70;;;;;;4696419;30;20049;-83
2022/02/10 18:14:24;;;;;;;15.63;5.13;;;13.20;54.20;;;;;;4686507;30;20277;-83
2022/02/10 18:16:55;;;;;;;14.15;5.22;;;13.20;54.20;;;;;;4678903;30;20338;-83
2022/02/10 18:19:35;;;;;;;16.85;4.78;;;13.20;54.50;;;;;;4693791;30;20054;-82
2022/02/10 18:24:58;;;;;;;15.50;8.00;;;13.20;54.70;;;;;;4709206;30;20368;-83
2022/02/10 18:27:28;;;;;;;35.30;23.20;;;13.20;54.80;;;;;;4701715;30;20076;-83
2022/02/10 19:10:12;;;;;;;11.27;5.30;;;12.30;58.10;;;;;;4660064;30;20346;-83
2022/02/10 19:12:44;;;;;;;10.15;4.65;;;12.20;58.30;;;;;;4674130;30;20038;-82
2022/02/10 19:18:09;;;;;;;12.43;4.97;;;12.10;58.80;;;;;;4635527;30;20062;-83
2022/02/10 19:20:39;;;;;;;19.27;4.65;;;12.10;59.10;;;;;;4634975;31;20052;-83
2022/02/10 19:23:06;;;;;;;11.32;4.85;;;12.00;59.50;;;;;;4643897;30;20043;-83
2022/02/10 19:25:36;;;;;;;;;;;11.90;59.80;;;;;;4644787;30;20271;-83
2022/02/10 19:28:02;;;;;;;14.50;5.07;;;11.90;60.00;;;;;;4638299;31;19978;-82
2022/02/10 19:30:30;;;;;;;13.40;5.10;;;11.80;60.00;;;;;;4640826;30;20238;-83
2022/02/10 19:33:00;;;;;;;16.52;4.97;;;11.80;60.10;;;;;;4655009;30;20047;-83
2022/02/10 19:35:28;;;;;;;13.63;5.05;;;11.80;60.20;;;;;;4641812;30;20085;-83
2022/02/10 19:37:59;;;;;;;15.60;5.93;;;11.70;60.40;;;;;;4644646;30;20125;-83
2022/02/10 19:40:27;;;;;;;10.30;4.95;;;11.70;60.60;;;;;;4672249;30;20082;-83
2022/02/10 19:42:55;;;;;;;10.45;5.55;;;11.60;61.00;;;;;;4660365;30;20121;-83
2022/02/10 19:45:23;;;;;;;7.70;4.32;;;11.60;61.00;;;;;;4659157;30;20039;-83
2022/02/10 19:47:50;;;;;;;14.68;6.00;;;11.50;61.20;;;;;;4653704;30;20074;-83
2022/02/10 19:50:22;;;;;;;11.23;5.60;;;11.50;61.40;;;;;;4654294;30;20067;-82
2022/02/10 19:52:50;;;;;;;11.60;5.57;;;11.50;61.60;;;;;;4654918;30;20334;-83
2022/02/10 19:55:22;;;;;;;12.10;5.10;;;11.40;61.70;;;;;;4679952;30;20060;-83
2022/02/10 19:57:50;;;;;;;8.75;4.15;;;11.40;61.80;;;;;;4688893;30;20057;-83
2022/02/10 20:00:20;;;;;;;8.30;4.30;;;11.40;62.00;;;;;;4693840;30;20080;-83
2022/02/10 20:02:47;;;;;;;11.70;5.50;;;11.40;62.10;;;;;;4693854;30;20060;-83
2022/02/10 20:05:12;;;;;;;12.68;5.53;;;11.30;62.20;;;;;;4683022;30;20045;-83
2022/02/10 20:07:42;;;;;;;9.45;4.68;;;11.30;62.40;;;;;;4672679;30;20332;-83
2022/02/10 20:10:09;;;;;;;12.65;5.60;;;11.20;62.70;;;;;;4698419;30;20065;-83
2022/02/10 20:12:38;;;;;;;12.13;5.00;;;11.20;62.70;;;;;;4679363;30;20054;-83
2022/02/10 20:15:04;;;;;;;9.98;4.80;;;11.20;62.60;;;;;;4674414;30;20026;-82
2022/02/10 20:17:30;;;;;;;24.67;10.90;;;11.00;62.70;;;;;;4675354;30;20041;-82
2022/02/10 20:19:56;;;;;;;17.33;8.38;;;10.90;63.00;;;;;;4687547;30;20034;-82
2022/02/10 20:22:21;;;;;;;24.52;12.85;;;10.80;63.40;;;;;;4690170;30;20043;-82
2022/02/10 20:24:47;;;;;;;20.10;10.27;;;10.60;63.70;;;;;;4679664;30;20045;-82
2022/02/10 20:27:13;;;;;;;22.30;10.68;;;10.40;64.10;;;;;;4678549;30;20042;-82
2022/02/10 20:29:39;;;;;;;20.40;10.43;;;10.30;64.50;;;;;;4696724;30;20356;-82
2022/02/10 20:32:07;;;;;;;18.92;9.70;;;10.10;64.80;;;;;;4671238;30;20042;-82
2022/02/10 20:34:33;;;;;;;20.95;9.88;;;10.00;65.40;;;;;;4663080;30;20310;-82
2022/02/10 20:37:02;;;;;;;20.92;9.23;;;9.80;65.70;;;;;;4688081;30;20049;-82
2022/02/10 20:39:29;;;;;;;20.95;9.20;;;9.70;66.40;;;;;;4681525;30;20037;-82
2022/02/10 20:42:03;;;;;;;20.80;9.43;;;9.70;66.80;;;;;;4704882;30;20046;-82
2022/02/10 20:44:29;;;;;;;17.92;9.90;;;9.60;66.90;;;;;;4678683;30;20044;-82
2022/02/10 20:46:56;;;;;;;21.83;10.32;;;9.60;67.30;;;;;;4705659;30;20050;-82
2022/02/10 20:49:27;;;;;;;24.47;10.57;;;9.60;67.70;;;;;;4707690;30;20034;-82
2022/02/10 20:51:54;;;;;;;18.55;9.35;;;9.60;67.90;;;;;;4693135;30;20581;-83
2022/02/10 20:54:21;;;;;;;19.25;8.70;;;9.60;68.10;;;;;;4669973;30;20042;-82
2022/02/10 20:56:46;;;;;;;18.30;10.48;;;9.60;68.20;;;;;;4682080;30;20049;-82
